sensor_id;sensor_type;location;lat;lon;timestamp;P1;durP1;ratioP1;P2;durP2;ratioP2
27666;SDS011;15074;50.940;5.282;2022-07-17T00:00:50;2.50;;;1.52;;
27666;SDS011;15074;50.940;5.282;2022-07-17T00:03:17;5.30;;;1.50;;
27666;SDS011;15074;50.940;5.282;2022-07-17T00:05:43;2.80;;;1.40;;
27666;SDS011;15074;50.940;5.282;2022-07-17T00:08:10;4.97;;;1.20;;
27666;SDS011;15074;50.940;5.282;2022-07-17T00:10:37;5.65;;;1.52;;
27666;SDS011;15074;50.940;5.282;2022-07-17T00:13:04;3.40;;;1.48;;
27666;SDS011;15074;50.940;5.282;2022-07-17T00:15:31;7.18;;;1.50;;
27666;SDS011;15074;50.940;5.282;2022-07-17T00:17:57;5.13;;;1.90;;
27666;SDS011;15074;50.940;5.282;2022-07-17T00:20:24;3.03;;;1.85;;
27666;SDS011;15074;50.940;5.282;2022-07-17T00:22:52;4.60;;;1.80;;
27666;SDS011;15074;50.940;5.282;2022-07-17T00:25:19;3.95;;;1.33;;
27666;SDS011;15074;50.940;5.282;2022-07-17T00:27:44;6.75;;;1.48;;
27666;SDS011;15074;50.940;5.282;2022-07-17T00:30:10;3.75;;;1.73;;
27666;SDS011;15074;50.940;5.282;2022-07-17T00:32:37;5.78;;;1.63;;
27666;SDS011;15074;50.940;5.282;2022-07-17T00:35:03;4.25;;;1.60;;
27666;SDS011;15074;50.940;5.282;2022-07-17T00:37:29;6.20;;;1.70;;
27666;SDS011;15074;50.940;5.282;2022-07-17T00:39:55;4.95;;;1.95;;
27666;SDS011;15074;50.940;5.282;2022-07-17T00:42:20;5.13;;;1.98;;
27666;SDS011;15074;50.940;5.282;2022-07-17T00:44:46;5.78;;;2.00;;
27666;SDS011;15074;50.940;5.282;2022-07-17T00:47:16;5.25;;;1.77;;
27666;SDS011;15074;50.940;5.282;2022-07-17T00:49:43;5.93;;;1.77;;
27666;SDS011;15074;50.940;5.282;2022-07-17T00:52:10;3.88;;;1.63;;
27666;SDS011;15074;50.940;5.282;2022-07-17T00:54:37;4.45;;;1.83;;
27666;SDS011;15074;50.940;5.282;2022-07-17T00:57:07;2.17;;;1.45;;
27666;SDS011;15074;50.940;5.282;2022-07-17T00:59:38;4.30;;;1.80;;
27666;SDS011;15074;50.940;5.282;2022-07-17T01:02:08;4.95;;;1.60;;
27666;SDS011;15074;50.940;5.282;2022-07-17T01:04:35;3.85;;;1.75;;
27666;SDS011;15074;50.940;5.282;2022-07-17T01:07:03;3.80;;;1.60;;
27666;SDS011;15074;50.940;5.282;2022-07-17T01:09:29;5.80;;;1.83;;
27666;SDS011;15074;50.940;5.282;2022-07-17T01:11:56;3.17;;;1.80;;
27666;SDS011;15074;50.940;5.282;2022-07-17T01:14:23;3.75;;;1.80;;
27666;SDS011;15074;50.940;5.282;2022-07-17T01:16:49;5.30;;;1.90;;
27666;SDS011;15074;50.940;5.282;2022-07-17T01:19:16;3.97;;;1.95;;
27666;SDS011;15074;50.940;5.282;2022-07-17T01:21:43;3.35;;;1.75;;
27666;SDS011;15074;50.940;5.282;2022-07-17T01:24:10;5.57;;;2.05;;
27666;SDS011;15074;50.940;5.282;2022-07-17T01:26:36;5.60;;;1.80;;
27666;SDS011;15074;50.940;5.282;2022-07-17T01:29:05;2.85;;;1.80;;
27666;SDS011;15074;50.940;5.282;2022-07-17T01:31:31;3.80;;;1.90;;
27666;SDS011;15074;50.940;5.282;2022-07-17T01:33:57;5.25;;;2.08;;
27666;SDS011;15074;50.940;5.282;2022-07-17T01:36:24;3.95;;;1.80;;
27666;SDS011;15074;50.940;5.282;2022-07-17T01:38:50;5.22;;;1.77;;
27666;SDS011;15074;50.940;5.282;2022-07-17T01:41:16;6.38;;;1.90;;
27666;SDS011;15074;50.940;5.282;2022-07-17T01:43:42;5.38;;;1.75;;
27666;SDS011;15074;50.940;5.282;2022-07-17T01:46:08;7.97;;;1.90;;
27666;SDS011;15074;50.940;5.282;2022-07-17T01:48:33;2.72;;;1.85;;
27666;SDS011;15074;50.940;5.282;2022-07-17T01:50:59;4.70;;;1.80;;
27666;SDS011;15074;50.940;5.282;2022-07-17T01:53:25;3.85;;;1.75;;
27666;SDS011;15074;50.940;5.282;2022-07-17T01:55:51;8.27;;;1.55;;
27666;SDS011;15074;50.940;5.282;2022-07-17T01:58:16;4.75;;;2.00;;
27666;SDS011;15074;50.940;5.282;2022-07-17T02:00:42;4.15;;;1.90;;
27666;SDS011;15074;50.940;5.282;2022-07-17T02:03:08;7.47;;;2.47;;
27666;SDS011;15074;50.940;5.282;2022-07-17T02:05:33;4.72;;;2.00;;
27666;SDS011;15074;50.940;5.282;2022-07-17T02:07:59;4.22;;;2.03;;
27666;SDS011;15074;50.940;5.282;2022-07-17T02:10:25;3.95;;;2.47;;
27666;SDS011;15074;50.940;5.282;2022-07-17T02:12:51;2.78;;;1.88;;
27666;SDS011;15074;50.940;5.282;2022-07-17T02:15:17;5.00;;;2.13;;
27666;SDS011;15074;50.940;5.282;2022-07-17T02:17:43;2.95;;;1.60;;
27666;SDS011;15074;50.940;5.282;2022-07-17T02:20:09;7.85;;;1.77;;
27666;SDS011;15074;50.940;5.282;2022-07-17T02:22:36;4.35;;;2.00;;
27666;SDS011;15074;50.940;5.282;2022-07-17T02:25:03;5.78;;;1.73;;
27666;SDS011;15074;50.940;5.282;2022-07-17T02:27:33;4.22;;;1.83;;
27666;SDS011;15074;50.940;5.282;2022-07-17T02:30:06;2.35;;;1.50;;
27666;SDS011;15074;50.940;5.282;2022-07-17T02:32:33;4.25;;;1.65;;
27666;SDS011;15074;50.940;5.282;2022-07-17T02:34:59;3.35;;;1.65;;
27666;SDS011;15074;50.940;5.282;2022-07-17T02:37:24;7.80;;;1.92;;
27666;SDS011;15074;50.940;5.282;2022-07-17T02:39:50;5.07;;;2.25;;
27666;SDS011;15074;50.940;5.282;2022-07-17T02:42:22;6.85;;;2.40;;
27666;SDS011;15074;50.940;5.282;2022-07-17T02:44:49;4.88;;;1.80;;
27666;SDS011;15074;50.940;5.282;2022-07-17T02:49:54;4.07;;;1.70;;
27666;SDS011;15074;50.940;5.282;2022-07-17T02:52:20;6.75;;;2.05;;
27666;SDS011;15074;50.940;5.282;2022-07-17T02:54:46;3.75;;;2.22;;
27666;SDS011;15074;50.940;5.282;2022-07-17T02:57:12;2.88;;;1.90;;
27666;SDS011;15074;50.940;5.282;2022-07-17T02:59:38;6.15;;;2.30;;
27666;SDS011;15074;50.940;5.282;2022-07-17T03:02:04;4.53;;;2.75;;
27666;SDS011;15074;50.940;5.282;2022-07-17T03:04:30;6.50;;;2.42;;
27666;SDS011;15074;50.940;5.282;2022-07-17T03:06:55;5.65;;;2.15;;
27666;SDS011;15074;50.940;5.282;2022-07-17T03:09:21;5.07;;;2.60;;
27666;SDS011;15074;50.940;5.282;2022-07-17T03:11:47;5.35;;;2.85;;
27666;SDS011;15074;50.940;5.282;2022-07-17T03:14:12;4.00;;;2.72;;
27666;SDS011;15074;50.940;5.282;2022-07-17T03:16:38;5.32;;;2.22;;
27666;SDS011;15074;50.940;5.282;2022-07-17T03:19:04;3.50;;;2.00;;
27666;SDS011;15074;50.940;5.282;2022-07-17T03:21:29;5.72;;;2.33;;
27666;SDS011;15074;50.940;5.282;2022-07-17T03:23:55;4.57;;;2.10;;
27666;SDS011;15074;50.940;5.282;2022-07-17T03:26:20;7.30;;;3.03;;
27666;SDS011;15074;50.940;5.282;2022-07-17T03:28:46;5.45;;;2.25;;
27666;SDS011;15074;50.940;5.282;2022-07-17T03:31:12;6.65;;;2.53;;
27666;SDS011;15074;50.940;5.282;2022-07-17T03:33:37;4.57;;;2.35;;
27666;SDS011;15074;50.940;5.282;2022-07-17T03:36:03;5.20;;;2.38;;
27666;SDS011;15074;50.940;5.282;2022-07-17T03:38:29;7.63;;;2.63;;
27666;SDS011;15074;50.940;5.282;2022-07-17T03:40:54;6.05;;;2.65;;
27666;SDS011;15074;50.940;5.282;2022-07-17T03:43:20;5.60;;;2.53;;
27666;SDS011;15074;50.940;5.282;2022-07-17T03:45:46;4.88;;;2.25;;
27666;SDS011;15074;50.940;5.282;2022-07-17T03:48:11;5.43;;;2.35;;
27666;SDS011;15074;50.940;5.282;2022-07-17T03:50:37;3.85;;;2.53;;
27666;SDS011;15074;50.940;5.282;2022-07-17T03:53:03;4.90;;;2.55;;
27666;SDS011;15074;50.940;5.282;2022-07-17T03:55:28;4.25;;;2.50;;
27666;SDS011;15074;50.940;5.282;2022-07-17T03:57:54;4.53;;;2.95;;
27666;SDS011;15074;50.940;5.282;2022-07-17T04:00:19;4.90;;;2.13;;
27666;SDS011;15074;50.940;5.282;2022-07-17T04:02:45;5.50;;;2.65;;
27666;SDS011;15074;50.940;5.282;2022-07-17T04:05:10;4.78;;;2.72;;
27666;SDS011;15074;50.940;5.282;2022-07-17T04:07:40;5.68;;;3.13;;
27666;SDS011;15074;50.940;5.282;2022-07-17T04:10:07;5.95;;;3.17;;
27666;SDS011;15074;50.940;5.282;2022-07-17T04:12:34;4.88;;;2.92;;
27666;SDS011;15074;50.940;5.282;2022-07-17T04:15:00;9.02;;;3.42;;
27666;SDS011;15074;50.940;5.282;2022-07-17T04:17:26;7.85;;;2.92;;
27666;SDS011;15074;50.940;5.282;2022-07-17T04:19:52;19.42;;;2.90;;
27666;SDS011;15074;50.940;5.282;2022-07-17T04:22:18;4.75;;;2.67;;
27666;SDS011;15074;50.940;5.282;2022-07-17T04:24:43;3.63;;;2.17;;
27666;SDS011;15074;50.940;5.282;2022-07-17T04:27:10;4.13;;;2.25;;
27666;SDS011;15074;50.940;5.282;2022-07-17T04:29:36;5.15;;;2.85;;
27666;SDS011;15074;50.940;5.282;2022-07-17T04:32:02;6.20;;;2.58;;
27666;SDS011;15074;50.940;5.282;2022-07-17T04:34:28;4.85;;;2.60;;
27666;SDS011;15074;50.940;5.282;2022-07-17T04:36:54;3.58;;;2.55;;
27666;SDS011;15074;50.940;5.282;2022-07-17T04:39:20;6.60;;;2.22;;
27666;SDS011;15074;50.940;5.282;2022-07-17T04:41:48;2.35;;;2.15;;
27666;SDS011;15074;50.940;5.282;2022-07-17T04:44:13;5.10;;;2.67;;
27666;SDS011;15074;50.940;5.282;2022-07-17T04:46:39;8.73;;;3.38;;
27666;SDS011;15074;50.940;5.282;2022-07-17T04:49:04;4.60;;;3.00;;
27666;SDS011;15074;50.940;5.282;2022-07-17T04:51:30;5.05;;;3.63;;
27666;SDS011;15074;50.940;5.282;2022-07-17T04:53:56;8.77;;;3.70;;
27666;SDS011;15074;50.940;5.282;2022-07-17T04:56:21;4.13;;;3.35;;
27666;SDS011;15074;50.940;5.282;2022-07-17T04:58:47;5.47;;;2.70;;
27666;SDS011;15074;50.940;5.282;2022-07-17T05:01:12;3.67;;;2.35;;
27666;SDS011;15074;50.940;5.282;2022-07-17T05:03:38;4.00;;;2.35;;
27666;SDS011;15074;50.940;5.282;2022-07-17T05:06:04;3.95;;;2.22;;
27666;SDS011;15074;50.940;5.282;2022-07-17T05:08:30;3.00;;;2.15;;
27666;SDS011;15074;50.940;5.282;2022-07-17T05:10:55;3.15;;;2.50;;
27666;SDS011;15074;50.940;5.282;2022-07-17T05:13:21;4.20;;;2.78;;
27666;SDS011;15074;50.940;5.282;2022-07-17T05:15:47;3.90;;;2.40;;
27666;SDS011;15074;50.940;5.282;2022-07-17T05:18:14;6.88;;;2.80;;
27666;SDS011;15074;50.940;5.282;2022-07-17T05:20:40;5.28;;;3.00;;
27666;SDS011;15074;50.940;5.282;2022-07-17T05:23:06;3.88;;;2.80;;
27666;SDS011;15074;50.940;5.282;2022-07-17T05:25:31;6.28;;;2.78;;
27666;SDS011;15074;50.940;5.282;2022-07-17T05:27:57;4.72;;;3.00;;
27666;SDS011;15074;50.940;5.282;2022-07-17T05:30:23;3.25;;;2.78;;
27666;SDS011;15074;50.940;5.282;2022-07-17T05:32:49;4.03;;;3.40;;
27666;SDS011;15074;50.940;5.282;2022-07-17T05:35:14;2.75;;;2.30;;
27666;SDS011;15074;50.940;5.282;2022-07-17T05:37:41;4.93;;;2.75;;
27666;SDS011;15074;50.940;5.282;2022-07-17T05:40:07;3.35;;;2.65;;
27666;SDS011;15074;50.940;5.282;2022-07-17T05:42:33;5.65;;;2.92;;
27666;SDS011;15074;50.940;5.282;2022-07-17T05:44:59;8.43;;;3.00;;
27666;SDS011;15074;50.940;5.282;2022-07-17T05:47:24;3.90;;;2.55;;
27666;SDS011;15074;50.940;5.282;2022-07-17T05:49:50;4.10;;;2.67;;
27666;SDS011;15074;50.940;5.282;2022-07-17T05:52:16;4.28;;;2.90;;
27666;SDS011;15074;50.940;5.282;2022-07-17T05:54:42;4.28;;;3.08;;
27666;SDS011;15074;50.940;5.282;2022-07-17T05:57:07;4.18;;;2.72;;
27666;SDS011;15074;50.940;5.282;2022-07-17T05:59:33;2.83;;;2.00;;
27666;SDS011;15074;50.940;5.282;2022-07-17T06:01:59;4.28;;;2.65;;
27666;SDS011;15074;50.940;5.282;2022-07-17T06:04:25;4.57;;;2.63;;
27666;SDS011;15074;50.940;5.282;2022-07-17T06:06:51;3.67;;;2.22;;
27666;SDS011;15074;50.940;5.282;2022-07-17T06:09:16;3.50;;;2.20;;
27666;SDS011;15074;50.940;5.282;2022-07-17T06:11:42;4.88;;;2.50;;
27666;SDS011;15074;50.940;5.282;2022-07-17T06:14:08;4.40;;;2.40;;
27666;SDS011;15074;50.940;5.282;2022-07-17T06:16:33;3.85;;;2.30;;
27666;SDS011;15074;50.940;5.282;2022-07-17T06:18:59;4.22;;;2.17;;
27666;SDS011;15074;50.940;5.282;2022-07-17T06:21:24;4.78;;;2.33;;
27666;SDS011;15074;50.940;5.282;2022-07-17T06:23:50;4.20;;;2.00;;
27666;SDS011;15074;50.940;5.282;2022-07-17T06:26:16;4.28;;;2.25;;
27666;SDS011;15074;50.940;5.282;2022-07-17T06:28:41;4.05;;;1.90;;
27666;SDS011;15074;50.940;5.282;2022-07-17T06:31:07;3.65;;;1.98;;
27666;SDS011;15074;50.940;5.282;2022-07-17T06:33:32;3.28;;;1.95;;
27666;SDS011;15074;50.940;5.282;2022-07-17T06:35:58;3.40;;;2.28;;
27666;SDS011;15074;50.940;5.282;2022-07-17T06:38:24;3.72;;;2.05;;
27666;SDS011;15074;50.940;5.282;2022-07-17T06:40:49;3.33;;;1.83;;
27666;SDS011;15074;50.940;5.282;2022-07-17T06:43:15;2.78;;;2.00;;
27666;SDS011;15074;50.940;5.282;2022-07-17T06:45:41;3.63;;;1.77;;
27666;SDS011;15074;50.940;5.282;2022-07-17T06:48:06;4.47;;;2.03;;
27666;SDS011;15074;50.940;5.282;2022-07-17T06:50:33;4.15;;;1.70;;
27666;SDS011;15074;50.940;5.282;2022-07-17T06:52:59;4.65;;;1.60;;
27666;SDS011;15074;50.940;5.282;2022-07-17T06:55:25;2.80;;;1.63;;
27666;SDS011;15074;50.940;5.282;2022-07-17T06:57:50;3.90;;;1.92;;
27666;SDS011;15074;50.940;5.282;2022-07-17T07:00:16;5.00;;;1.70;;
27666;SDS011;15074;50.940;5.282;2022-07-17T07:02:43;2.97;;;1.40;;
27666;SDS011;15074;50.940;5.282;2022-07-17T07:05:09;5.55;;;2.28;;
27666;SDS011;15074;50.940;5.282;2022-07-17T07:07:35;4.05;;;1.60;;
27666;SDS011;15074;50.940;5.282;2022-07-17T07:10:00;3.75;;;1.40;;
27666;SDS011;15074;50.940;5.282;2022-07-17T07:12:26;2.97;;;1.42;;
27666;SDS011;15074;50.940;5.282;2022-07-17T07:14:52;3.30;;;1.70;;
27666;SDS011;15074;50.940;5.282;2022-07-17T07:17:17;2.78;;;1.40;;
27666;SDS011;15074;50.940;5.282;2022-07-17T07:19:43;2.88;;;1.50;;
27666;SDS011;15074;50.940;5.282;2022-07-17T07:22:09;7.78;;;1.30;;
27666;SDS011;15074;50.940;5.282;2022-07-17T07:24:34;2.70;;;1.60;;
27666;SDS011;15074;50.940;5.282;2022-07-17T07:27:00;3.67;;;1.33;;
27666;SDS011;15074;50.940;5.282;2022-07-17T07:29:25;3.28;;;1.58;;
27666;SDS011;15074;50.940;5.282;2022-07-17T07:31:51;5.25;;;1.33;;
27666;SDS011;15074;50.940;5.282;2022-07-17T07:34:16;3.17;;;1.50;;
27666;SDS011;15074;50.940;5.282;2022-07-17T07:36:42;3.22;;;1.48;;
27666;SDS011;15074;50.940;5.282;2022-07-17T07:39:08;3.13;;;1.20;;
27666;SDS011;15074;50.940;5.282;2022-07-17T07:41:33;3.22;;;1.30;;
27666;SDS011;15074;50.940;5.282;2022-07-17T07:43:59;2.42;;;1.35;;
27666;SDS011;15074;50.940;5.282;2022-07-17T07:46:25;3.80;;;1.35;;
27666;SDS011;15074;50.940;5.282;2022-07-17T07:48:50;5.45;;;1.30;;
27666;SDS011;15074;50.940;5.282;2022-07-17T07:51:16;3.80;;;1.70;;
27666;SDS011;15074;50.940;5.282;2022-07-17T07:53:41;2.40;;;1.50;;
27666;SDS011;15074;50.940;5.282;2022-07-17T07:56:07;6.80;;;1.40;;
27666;SDS011;15074;50.940;5.282;2022-07-17T07:58:33;2.03;;;1.08;;
27666;SDS011;15074;50.940;5.282;2022-07-17T08:00:59;3.75;;;1.30;;
27666;SDS011;15074;50.940;5.282;2022-07-17T08:03:24;1.90;;;1.02;;
27666;SDS011;15074;50.940;5.282;2022-07-17T08:05:50;2.47;;;1.00;;
27666;SDS011;15074;50.940;5.282;2022-07-17T08:08:16;2.10;;;1.10;;
27666;SDS011;15074;50.940;5.282;2022-07-17T08:10:41;1.65;;;1.00;;
27666;SDS011;15074;50.940;5.282;2022-07-17T08:13:07;3.00;;;1.08;;
27666;SDS011;15074;50.940;5.282;2022-07-17T08:15:32;3.45;;;1.15;;
27666;SDS011;15074;50.940;5.282;2022-07-17T08:17:58;3.88;;;1.00;;
27666;SDS011;15074;50.940;5.282;2022-07-17T08:20:24;13.47;;;1.27;;
27666;SDS011;15074;50.940;5.282;2022-07-17T08:22:50;2.53;;;1.20;;
27666;SDS011;15074;50.940;5.282;2022-07-17T08:25:16;2.30;;;0.90;;
27666;SDS011;15074;50.940;5.282;2022-07-17T08:27:43;3.90;;;0.98;;
27666;SDS011;15074;50.940;5.282;2022-07-17T08:30:10;4.53;;;1.27;;
27666;SDS011;15074;50.940;5.282;2022-07-17T08:32:38;2.75;;;0.90;;
27666;SDS011;15074;50.940;5.282;2022-07-17T08:35:05;2.60;;;1.00;;
27666;SDS011;15074;50.940;5.282;2022-07-17T08:37:41;2.97;;;1.00;;
27666;SDS011;15074;50.940;5.282;2022-07-17T08:40:15;2.50;;;1.17;;
27666;SDS011;15074;50.940;5.282;2022-07-17T08:42:42;5.32;;;1.10;;
27666;SDS011;15074;50.940;5.282;2022-07-17T08:45:08;2.33;;;0.90;;
27666;SDS011;15074;50.940;5.282;2022-07-17T08:47:35;3.38;;;1.00;;
27666;SDS011;15074;50.940;5.282;2022-07-17T08:50:02;2.40;;;0.82;;
27666;SDS011;15074;50.940;5.282;2022-07-17T08:52:28;3.25;;;1.45;;
27666;SDS011;15074;50.940;5.282;2022-07-17T08:54:54;5.35;;;1.00;;
27666;SDS011;15074;50.940;5.282;2022-07-17T08:57:22;2.00;;;0.80;;
27666;SDS011;15074;50.940;5.282;2022-07-17T08:59:47;1.95;;;0.80;;
27666;SDS011;15074;50.940;5.282;2022-07-17T09:02:13;3.90;;;1.20;;
27666;SDS011;15074;50.940;5.282;2022-07-17T09:04:39;3.97;;;1.20;;
27666;SDS011;15074;50.940;5.282;2022-07-17T09:07:07;3.63;;;1.00;;
27666;SDS011;15074;50.940;5.282;2022-07-17T09:09:37;3.88;;;1.00;;
27666;SDS011;15074;50.940;5.282;2022-07-17T09:12:04;8.50;;;1.43;;
27666;SDS011;15074;50.940;5.282;2022-07-17T09:14:40;3.15;;;0.90;;
27666;SDS011;15074;50.940;5.282;2022-07-17T09:17:09;1.77;;;0.80;;
27666;SDS011;15074;50.940;5.282;2022-07-17T09:19:41;1.88;;;0.63;;
27666;SDS011;15074;50.940;5.282;2022-07-17T09:24:43;1.55;;;0.70;;
27666;SDS011;15074;50.940;5.282;2022-07-17T09:27:11;4.18;;;0.70;;
27666;SDS011;15074;50.940;5.282;2022-07-17T09:32:21;5.43;;;0.90;;
27666;SDS011;15074;50.940;5.282;2022-07-17T09:34:49;1.77;;;0.68;;
27666;SDS011;15074;50.940;5.282;2022-07-17T09:37:16;1.92;;;0.80;;
27666;SDS011;15074;50.940;5.282;2022-07-17T09:39:42;3.27;;;0.80;;
27666;SDS011;15074;50.940;5.282;2022-07-17T09:42:08;2.80;;;0.70;;
27666;SDS011;15074;50.940;5.282;2022-07-17T09:44:34;2.70;;;0.70;;
27666;SDS011;15074;50.940;5.282;2022-07-17T09:47:00;3.83;;;1.00;;
27666;SDS011;15074;50.940;5.282;2022-07-17T09:49:27;2.05;;;0.70;;
27666;SDS011;15074;50.940;5.282;2022-07-17T09:51:54;2.67;;;1.10;;
27666;SDS011;15074;50.940;5.282;2022-07-17T09:54:20;1.23;;;0.63;;
27666;SDS011;15074;50.940;5.282;2022-07-17T09:56:46;5.07;;;4.68;;
27666;SDS011;15074;50.940;5.282;2022-07-17T09:59:14;2.78;;;1.00;;
27666;SDS011;15074;50.940;5.282;2022-07-17T10:01:42;4.32;;;0.90;;
27666;SDS011;15074;50.940;5.282;2022-07-17T10:04:09;7.00;;;2.47;;
27666;SDS011;15074;50.940;5.282;2022-07-17T10:06:36;1.58;;;0.77;;
27666;SDS011;15074;50.940;5.282;2022-07-17T10:09:02;6.83;;;4.50;;
27666;SDS011;15074;50.940;5.282;2022-07-17T10:11:30;4.18;;;1.10;;
27666;SDS011;15074;50.940;5.282;2022-07-17T10:14:04;2.35;;;1.10;;
27666;SDS011;15074;50.940;5.282;2022-07-17T10:16:34;3.15;;;1.10;;
27666;SDS011;15074;50.940;5.282;2022-07-17T10:19:03;2.03;;;1.20;;
27666;SDS011;15074;50.940;5.282;2022-07-17T10:21:57;2.85;;;1.17;;
27666;SDS011;15074;50.940;5.282;2022-07-17T10:24:24;2.17;;;1.00;;
27666;SDS011;15074;50.940;5.282;2022-07-17T10:26:51;1.80;;;0.70;;
27666;SDS011;15074;50.940;5.282;2022-07-17T10:29:36;1.92;;;0.70;;
27666;SDS011;15074;50.940;5.282;2022-07-17T10:32:07;1.95;;;0.80;;
27666;SDS011;15074;50.940;5.282;2022-07-17T10:35:00;2.47;;;0.80;;
27666;SDS011;15074;50.940;5.282;2022-07-17T10:45:31;1.35;;;0.70;;
27666;SDS011;15074;50.940;5.282;2022-07-17T10:53:11;3.05;;;0.70;;
27666;SDS011;15074;50.940;5.282;2022-07-17T10:55:42;2.70;;;0.82;;
27666;SDS011;15074;50.940;5.282;2022-07-17T10:58:20;1.30;;;0.68;;
27666;SDS011;15074;50.940;5.282;2022-07-17T11:03:25;1.95;;;0.60;;
27666;SDS011;15074;50.940;5.282;2022-07-17T11:05:52;2.60;;;0.70;;
27666;SDS011;15074;50.940;5.282;2022-07-17T11:08:17;1.50;;;0.80;;
27666;SDS011;15074;50.940;5.282;2022-07-17T11:10:44;1.80;;;0.65;;
27666;SDS011;15074;50.940;5.282;2022-07-17T11:13:11;2.78;;;0.90;;
27666;SDS011;15074;50.940;5.282;2022-07-17T11:15:43;2.80;;;0.77;;
27666;SDS011;15074;50.940;5.282;2022-07-17T11:18:20;2.15;;;0.70;;
27666;SDS011;15074;50.940;5.282;2022-07-17T11:20:50;1.33;;;0.70;;
27666;SDS011;15074;50.940;5.282;2022-07-17T11:23:20;1.13;;;0.60;;
27666;SDS011;15074;50.940;5.282;2022-07-17T11:28:40;3.80;;;0.70;;
27666;SDS011;15074;50.940;5.282;2022-07-17T11:31:42;2.15;;;0.90;;
27666;SDS011;15074;50.940;5.282;2022-07-17T11:34:01;1.70;;;0.70;;
27666;SDS011;15074;50.940;5.282;2022-07-17T11:36:36;1.52;;;0.63;;
27666;SDS011;15074;50.940;5.282;2022-07-17T11:39:06;4.13;;;0.98;;
27666;SDS011;15074;50.940;5.282;2022-07-17T11:41:38;2.42;;;0.82;;
27666;SDS011;15074;50.940;5.282;2022-07-17T11:44:10;2.92;;;0.70;;
27666;SDS011;15074;50.940;5.282;2022-07-17T11:46:38;1.08;;;0.70;;
27666;SDS011;15074;50.940;5.282;2022-07-17T11:49:05;2.05;;;0.80;;
27666;SDS011;15074;50.940;5.282;2022-07-17T11:51:32;2.05;;;0.80;;
27666;SDS011;15074;50.940;5.282;2022-07-17T11:54:12;4.22;;;0.85;;
27666;SDS011;15074;50.940;5.282;2022-07-17T11:56:41;0.82;;;0.68;;
27666;SDS011;15074;50.940;5.282;2022-07-17T11:59:09;1.42;;;0.77;;
27666;SDS011;15074;50.940;5.282;2022-07-17T12:01:39;2.38;;;0.90;;
27666;SDS011;15074;50.940;5.282;2022-07-17T12:04:10;2.70;;;1.00;;
27666;SDS011;15074;50.940;5.282;2022-07-17T12:06:39;1.92;;;0.77;;
27666;SDS011;15074;50.940;5.282;2022-07-17T12:09:05;2.65;;;1.02;;
27666;SDS011;15074;50.940;5.282;2022-07-17T12:11:32;1.15;;;0.60;;
27666;SDS011;15074;50.940;5.282;2022-07-17T12:14:09;1.80;;;0.77;;
27666;SDS011;15074;50.940;5.282;2022-07-17T12:16:35;2.65;;;0.70;;
27666;SDS011;15074;50.940;5.282;2022-07-17T12:21:31;1.23;;;0.70;;
27666;SDS011;15074;50.940;5.282;2022-07-17T12:23:58;1.90;;;0.73;;
27666;SDS011;15074;50.940;5.282;2022-07-17T12:26:27;2.03;;;0.70;;
27666;SDS011;15074;50.940;5.282;2022-07-17T12:28:53;1.48;;;0.68;;
27666;SDS011;15074;50.940;5.282;2022-07-17T12:31:19;1.33;;;0.65;;
27666;SDS011;15074;50.940;5.282;2022-07-17T12:33:45;1.88;;;0.75;;
27666;SDS011;15074;50.940;5.282;2022-07-17T12:36:12;2.67;;;0.70;;
27666;SDS011;15074;50.940;5.282;2022-07-17T12:38:38;1.88;;;0.98;;
27666;SDS011;15074;50.940;5.282;2022-07-17T12:41:03;2.38;;;0.60;;
27666;SDS011;15074;50.940;5.282;2022-07-17T12:43:29;2.13;;;0.73;;
27666;SDS011;15074;50.940;5.282;2022-07-17T12:45:55;1.67;;;0.70;;
27666;SDS011;15074;50.940;5.282;2022-07-17T12:48:21;1.23;;;0.60;;
27666;SDS011;15074;50.940;5.282;2022-07-17T12:50:47;0.93;;;0.67;;
27666;SDS011;15074;50.940;5.282;2022-07-17T12:53:13;1.77;;;0.80;;
27666;SDS011;15074;50.940;5.282;2022-07-17T12:55:38;1.60;;;0.80;;
27666;SDS011;15074;50.940;5.282;2022-07-17T12:58:04;0.97;;;0.60;;
27666;SDS011;15074;50.940;5.282;2022-07-17T13:00:30;1.58;;;0.70;;
27666;SDS011;15074;50.940;5.282;2022-07-17T13:02:56;1.27;;;0.70;;
27666;SDS011;15074;50.940;5.282;2022-07-17T13:05:22;1.13;;;0.70;;
27666;SDS011;15074;50.940;5.282;2022-07-17T13:07:48;1.93;;;0.60;;
27666;SDS011;15074;50.940;5.282;2022-07-17T13:10:14;1.00;;;0.73;;
27666;SDS011;15074;50.940;5.282;2022-07-17T13:12:39;1.27;;;0.57;;
27666;SDS011;15074;50.940;5.282;2022-07-17T13:15:05;1.07;;;0.87;;
27666;SDS011;15074;50.940;5.282;2022-07-17T13:17:31;1.85;;;0.75;;
27666;SDS011;15074;50.940;5.282;2022-07-17T13:19:57;1.37;;;0.60;;
27666;SDS011;15074;50.940;5.282;2022-07-17T13:22:22;1.40;;;0.67;;
27666;SDS011;15074;50.940;5.282;2022-07-17T13:24:48;1.00;;;0.70;;
27666;SDS011;15074;50.940;5.282;2022-07-17T13:27:14;2.17;;;0.73;;
27666;SDS011;15074;50.940;5.282;2022-07-17T13:29:39;2.13;;;0.67;;
27666;SDS011;15074;50.940;5.282;2022-07-17T13:32:05;1.55;;;0.60;;
27666;SDS011;15074;50.940;5.282;2022-07-17T13:34:31;1.80;;;0.70;;
27666;SDS011;15074;50.940;5.282;2022-07-17T13:36:56;1.13;;;0.68;;
27666;SDS011;15074;50.940;5.282;2022-07-17T13:39:22;2.80;;;1.00;;
27666;SDS011;15074;50.940;5.282;2022-07-17T13:41:49;1.33;;;0.70;;
27666;SDS011;15074;50.940;5.282;2022-07-17T13:44:15;0.88;;;0.50;;
27666;SDS011;15074;50.940;5.282;2022-07-17T13:46:40;1.77;;;1.10;;
27666;SDS011;15074;50.940;5.282;2022-07-17T13:49:06;0.52;;;0.52;;
27666;SDS011;15074;50.940;5.282;2022-07-17T13:51:32;1.85;;;0.55;;
27666;SDS011;15074;50.940;5.282;2022-07-17T13:53:59;2.03;;;0.68;;
27666;SDS011;15074;50.940;5.282;2022-07-17T13:56:25;1.52;;;0.60;;
27666;SDS011;15074;50.940;5.282;2022-07-17T13:58:51;0.80;;;0.57;;
27666;SDS011;15074;50.940;5.282;2022-07-17T14:01:17;0.98;;;0.55;;
27666;SDS011;15074;50.940;5.282;2022-07-17T14:03:43;3.80;;;0.60;;
27666;SDS011;15074;50.940;5.282;2022-07-17T14:06:08;1.85;;;0.70;;
27666;SDS011;15074;50.940;5.282;2022-07-17T14:08:34;0.65;;;0.50;;
27666;SDS011;15074;50.940;5.282;2022-07-17T14:11:01;1.30;;;0.52;;
27666;SDS011;15074;50.940;5.282;2022-07-17T14:13:27;1.33;;;0.65;;
27666;SDS011;15074;50.940;5.282;2022-07-17T14:15:53;0.77;;;0.50;;
27666;SDS011;15074;50.940;5.282;2022-07-17T14:18:19;1.90;;;0.70;;
27666;SDS011;15074;50.940;5.282;2022-07-17T14:20:44;1.07;;;0.57;;
27666;SDS011;15074;50.940;5.282;2022-07-17T14:23:10;0.53;;;0.40;;
27666;SDS011;15074;50.940;5.282;2022-07-17T14:25:36;0.80;;;0.50;;
27666;SDS011;15074;50.940;5.282;2022-07-17T14:28:02;1.13;;;0.43;;
27666;SDS011;15074;50.940;5.282;2022-07-17T14:30:28;0.93;;;0.60;;
27666;SDS011;15074;50.940;5.282;2022-07-17T14:32:54;1.27;;;0.60;;
27666;SDS011;15074;50.940;5.282;2022-07-17T14:35:20;0.70;;;0.40;;
27666;SDS011;15074;50.940;5.282;2022-07-17T14:37:45;2.53;;;0.80;;
27666;SDS011;15074;50.940;5.282;2022-07-17T14:40:12;1.40;;;0.50;;
27666;SDS011;15074;50.940;5.282;2022-07-17T14:45:04;0.80;;;0.60;;
27666;SDS011;15074;50.940;5.282;2022-07-17T14:47:30;1.43;;;0.73;;
27666;SDS011;15074;50.940;5.282;2022-07-17T14:49:56;0.93;;;0.70;;
27666;SDS011;15074;50.940;5.282;2022-07-17T14:52:21;0.93;;;0.70;;
27666;SDS011;15074;50.940;5.282;2022-07-17T14:54:47;1.45;;;0.50;;
27666;SDS011;15074;50.940;5.282;2022-07-17T14:57:13;1.17;;;0.50;;
27666;SDS011;15074;50.940;5.282;2022-07-17T14:59:39;1.42;;;0.65;;
27666;SDS011;15074;50.940;5.282;2022-07-17T15:02:04;0.60;;;0.40;;
27666;SDS011;15074;50.940;5.282;2022-07-17T15:04:30;0.73;;;0.60;;
27666;SDS011;15074;50.940;5.282;2022-07-17T15:06:56;0.88;;;0.52;;
27666;SDS011;15074;50.940;5.282;2022-07-17T15:09:21;2.15;;;0.80;;
27666;SDS011;15074;50.940;5.282;2022-07-17T15:11:47;1.65;;;0.52;;
27666;SDS011;15074;50.940;5.282;2022-07-17T15:14:13;1.08;;;0.70;;
27666;SDS011;15074;50.940;5.282;2022-07-17T15:16:38;1.50;;;0.70;;